createdAt,value
2022-12-23T00:01:45.759Z,96.21
2022-12-23T00:04:12.238Z,96.64
2022-12-23T00:06:38.689Z,96.73
2022-12-23T00:09:05.178Z,97.08
2022-12-23T00:11:31.831Z,97.10
2022-12-23T00:14:21.688Z,97.31
2022-12-23T00:16:50.643Z,97.18
2022-12-23T00:19:17.298Z,96.88
2022-12-23T00:21:43.689Z,96.93
2022-12-23T00:24:11.903Z,96.93
2022-12-23T00:26:39.324Z,97.28
2022-12-23T00:29:05.778Z,97.37
2022-12-23T00:31:32.333Z,97.07
2022-12-23T00:33:58.743Z,97.21
2022-12-23T00:36:28.255Z,97.04
2022-12-23T00:39:14.721Z,97.20
2022-12-23T00:42:00.006Z,97.25
2022-12-23T00:44:26.751Z,97.35
2022-12-23T00:46:53.268Z,97.22
2022-12-23T00:49:39.331Z,97.35
2022-12-23T00:52:09.359Z,97.20
2022-12-23T00:54:35.806Z,97.40
2022-12-23T00:57:02.789Z,97.46
2022-12-23T00:59:29.316Z,97.47
2022-12-23T01:02:14.594Z,97.72
2022-12-23T01:04:59.744Z,97.67
2022-12-23T01:07:27.267Z,97.77
2022-12-23T01:09:53.722Z,97.71
2022-12-23T01:12:20.170Z,97.36
2022-12-23T01:14:46.603Z,97.60
2022-12-23T01:17:13.437Z,97.93
2022-12-23T01:19:39.890Z,97.64
2022-12-23T01:22:06.457Z,97.54
2022-12-23T01:24:33.306Z,97.35
2022-12-23T01:27:00.639Z,97.44
2022-12-23T01:29:27.084Z,97.51
2022-12-23T01:31:53.623Z,97.39
2022-12-23T01:34:20.074Z,96.85
2022-12-23T01:36:46.548Z,97.57
2022-12-23T01:39:13.001Z,98.34
2022-12-23T01:41:58.957Z,97.88
2022-12-23T01:45:02.390Z,97.88
2022-12-23T01:47:52.731Z,98.16
2022-12-23T01:50:33.049Z,98.22
2022-12-23T01:53:07.984Z,98.21
2022-12-23T01:55:40.975Z,97.81
2022-12-23T01:58:30.545Z,98.10
2022-12-23T02:01:16.731Z,98.56
2022-12-23T02:03:46.595Z,97.65
2022-12-23T02:06:44.823Z,98.14
2022-12-23T02:09:17.057Z,97.99
2022-12-23T02:12:01.647Z,98.06
2022-12-23T02:15:02.137Z,98.16
2022-12-23T02:17:35.323Z,97.97
2022-12-23T02:20:04.691Z,97.96
2022-12-23T02:22:31.027Z,97.87
2022-12-23T02:25:31.200Z,97.85
2022-12-23T02:28:11.072Z,97.76
2022-12-23T02:30:48.363Z,97.96
2022-12-23T02:33:41.181Z,97.70
2022-12-23T02:36:26.343Z,97.88
2022-12-23T02:39:11.846Z,97.84
2022-12-23T02:42:06.174Z,98.02
2022-12-23T02:44:40.533Z,98.12
2022-12-23T02:47:19.228Z,98.33
2022-12-23T02:49:53.206Z,98.11
2022-12-23T02:52:23.990Z,98.38
2022-12-23T02:54:54.207Z,98.56
2022-12-23T02:57:27.152Z,98.61
2022-12-23T02:59:55.892Z,98.75
2022-12-23T03:02:22.501Z,98.50
2022-12-23T03:04:49.055Z,98.40
2022-12-23T03:07:20.985Z,98.60
2022-12-23T03:10:01.328Z,98.53
2022-12-23T03:12:36.867Z,98.74
2022-12-23T03:15:42.534Z,98.54
2022-12-23T03:18:23.459Z,98.74
2022-12-23T03:21:01.705Z,98.53
2022-12-23T03:23:35.542Z,98.50
2022-12-23T03:26:09.463Z,98.49
2022-12-23T03:28:43.261Z,98.62
2022-12-23T03:31:15.885Z,98.57
2022-12-23T03:33:50.936Z,98.54
2022-12-23T03:36:26.380Z,98.69
2022-12-23T03:38:55.427Z,98.42
2022-12-23T03:41:28.673Z,98.51
2022-12-23T03:44:02.326Z,98.71
2022-12-23T03:46:38.960Z,98.60
2022-12-23T03:49:27.230Z,98.72
2022-12-23T03:51:59.629Z,98.64
2022-12-23T03:54:33.009Z,98.70
2022-12-23T03:57:07.749Z,99.00
2022-12-23T03:59:42.262Z,98.85
2022-12-23T04:02:32.781Z,98.70
2022-12-23T04:05:20.581Z,99.06
2022-12-23T04:07:53.093Z,99.04
2022-12-23T04:10:21.347Z,98.80
2022-12-23T04:12:48.571Z,98.67
2022-12-23T04:15:23.287Z,98.71
2022-12-23T04:17:51.533Z,98.72
2022-12-23T04:20:18.322Z,98.48
2022-12-23T04:22:46.052Z,98.95
2022-12-23T04:25:14.273Z,98.65
2022-12-23T04:27:41.352Z,99.14
2022-12-23T04:30:10.442Z,98.27
2022-12-23T04:32:37.071Z,98.45
2022-12-23T04:35:04.076Z,98.45
2022-12-23T04:37:30.617Z,98.47
2022-12-23T04:39:58.031Z,98.39
2022-12-23T04:42:24.413Z,98.34
2022-12-23T04:44:50.805Z,98.19
2022-12-23T04:47:17.205Z,98.32
2022-12-23T04:49:43.653Z,98.42
2022-12-23T04:52:10.123Z,98.62
2022-12-23T04:54:40.528Z,99.07
2022-12-23T04:57:10.387Z,98.70
2022-12-23T04:59:36.764Z,98.63
2022-12-23T05:02:03.341Z,99.04
2022-12-23T05:04:30.013Z,99.45
2022-12-23T05:06:56.413Z,99.31
2022-12-23T05:09:22.899Z,99.20
2022-12-23T05:11:49.315Z,99.11
2022-12-23T05:14:15.652Z,99.42
2022-12-23T05:16:42.172Z,99.37
2022-12-23T05:19:08.835Z,98.94
2022-12-23T05:21:35.175Z,99.02
2022-12-23T05:24:01.606Z,99.31
2022-12-23T05:26:28.134Z,99.03
2022-12-23T05:28:54.902Z,99.09
2022-12-23T05:31:21.369Z,98.90
2022-12-23T05:33:47.738Z,99.50
2022-12-23T05:36:14.310Z,98.89
2022-12-23T05:38:40.837Z,99.16
2022-12-23T05:41:07.669Z,99.06
2022-12-23T05:43:34.143Z,99.31
2022-12-23T05:46:00.765Z,99.22
2022-12-23T05:48:27.208Z,99.22
2022-12-23T05:50:54.389Z,99.18
2022-12-23T05:53:21.533Z,99.35
2022-12-23T05:55:48.430Z,99.13
2022-12-23T05:58:14.901Z,99.80
2022-12-23T06:00:41.549Z,99.54
2022-12-23T06:03:08.455Z,99.67
2022-12-23T06:05:37.659Z,99.96
2022-12-23T06:08:04.345Z,100.00
2022-12-23T06:10:30.959Z,99.98
2022-12-23T06:12:57.424Z,100.00
2022-12-23T06:15:24.078Z,100.00
2022-12-23T06:17:50.556Z,100.00
2022-12-23T06:20:20.670Z,99.82
2022-12-23T06:22:48.244Z,100.00
2022-12-23T06:25:15.097Z,100.00
2022-12-23T06:27:41.457Z,100.00
2022-12-23T06:30:08.560Z,99.88
2022-12-23T06:32:38.546Z,100.00
2022-12-23T06:35:06.328Z,100.00
2022-12-23T06:37:32.675Z,100.00
2022-12-23T06:39:59.012Z,100.00
2022-12-23T06:42:26.563Z,100.00
2022-12-23T06:44:52.909Z,100.00
2022-12-23T06:47:19.364Z,100.00
2022-12-23T06:49:45.739Z,100.00
2022-12-23T06:52:12.112Z,100.00
2022-12-23T06:54:38.463Z,100.00
2022-12-23T06:57:04.943Z,100.00
2022-12-23T06:59:32.337Z,100.00
2022-12-23T07:01:58.858Z,100.00
2022-12-23T07:04:25.303Z,100.00
2022-12-23T07:06:51.694Z,100.00
2022-12-23T07:09:18.199Z,100.00
2022-12-23T07:11:44.784Z,100.00
2022-12-23T07:14:11.613Z,100.00
2022-12-23T07:16:38.023Z,100.00
2022-12-23T07:19:04.745Z,100.00
2022-12-23T07:21:31.171Z,100.00
2022-12-23T07:23:57.577Z,100.00
2022-12-23T07:26:24.183Z,100.00
2022-12-23T07:28:50.554Z,100.00
2022-12-23T07:31:17.045Z,100.00
2022-12-23T07:33:43.526Z,100.00
2022-12-23T07:36:10.108Z,100.00
2022-12-23T07:38:40.694Z,100.00
2022-12-23T07:41:08.053Z,100.00
2022-12-23T07:43:34.612Z,99.50
2022-12-23T07:46:06.845Z,99.17
2022-12-23T07:48:33.308Z,99.16
2022-12-23T07:51:03.954Z,99.61
2022-12-23T07:53:30.794Z,99.21
2022-12-23T07:55:57.341Z,99.24
2022-12-23T07:58:24.155Z,99.17
2022-12-23T08:00:50.547Z,98.72
2022-12-23T08:03:17.215Z,98.71
2022-12-23T08:05:43.831Z,98.44
2022-12-23T08:08:10.343Z,98.64
2022-12-23T08:10:39.207Z,98.68
2022-12-23T08:13:09.221Z,98.80
2022-12-23T08:15:35.604Z,98.79
2022-12-23T08:18:02.042Z,98.29
2022-12-23T08:20:28.390Z,98.17
2022-12-23T08:22:55.265Z,98.85
2022-12-23T08:25:21.667Z,97.54
2022-12-23T08:27:48.101Z,97.85
2022-12-23T08:30:14.560Z,97.90
2022-12-23T08:32:40.898Z,98.16
2022-12-23T08:35:07.792Z,97.79
2022-12-23T08:37:34.171Z,98.02
2022-12-23T08:40:00.638Z,98.17
2022-12-23T08:42:27.041Z,98.47
2022-12-23T08:44:53.390Z,98.70
2022-12-23T08:47:19.727Z,98.40
2022-12-23T08:49:47.929Z,98.28
2022-12-23T08:52:14.421Z,98.63
2022-12-23T08:54:40.789Z,98.85
2022-12-23T08:57:07.466Z,98.24
2022-12-23T08:59:33.817Z,98.41
2022-12-23T09:02:02.056Z,97.44
2022-12-23T09:04:28.657Z,97.45
2022-12-23T09:06:55.151Z,97.42
2022-12-23T09:09:21.573Z,97.81
2022-12-23T09:11:49.203Z,97.71
2022-12-23T09:14:15.702Z,97.95
2022-12-23T09:16:42.123Z,97.63
2022-12-23T09:19:08.806Z,97.78
2022-12-23T09:21:35.319Z,97.84
2022-12-23T09:24:01.749Z,98.36
2022-12-23T09:26:30.653Z,97.91
2022-12-23T09:28:57.600Z,97.71
2022-12-23T09:31:26.698Z,97.55
2022-12-23T09:33:55.797Z,98.03
2022-12-23T09:36:23.473Z,98.07
2022-12-23T09:38:56.625Z,97.74
2022-12-23T09:41:34.384Z,97.82
2022-12-23T09:44:35.033Z,98.09
2022-12-23T09:47:04.787Z,98.44
2022-12-23T09:49:33.650Z,97.98
2022-12-23T09:52:05.539Z,98.17
2022-12-23T09:54:48.377Z,98.49
2022-12-23T09:57:36.206Z,98.30
2022-12-23T10:00:10.575Z,98.05
2022-12-23T10:02:45.186Z,98.03
2022-12-23T10:05:40.653Z,97.61
2022-12-23T10:08:14.297Z,97.63
2022-12-23T10:10:52.740Z,97.92
2022-12-23T10:13:27.855Z,97.69
2022-12-23T10:15:57.788Z,97.78
2022-12-23T10:18:39.261Z,97.30
2022-12-23T10:21:24.678Z,97.82
2022-12-23T10:23:53.856Z,97.97
2022-12-23T10:26:24.042Z,97.97
2022-12-23T10:28:57.283Z,98.19
2022-12-23T10:31:40.181Z,97.99
2022-12-23T10:34:17.628Z,98.47
2022-12-23T10:36:52.591Z,98.70
2022-12-23T10:39:37.298Z,98.83
2022-12-23T10:42:17.873Z,98.57
2022-12-23T10:44:58.694Z,98.87
2022-12-23T10:47:48.487Z,99.23
2022-12-23T10:50:50.166Z,99.21
2022-12-23T10:53:39.380Z,99.43
2022-12-23T10:56:07.364Z,99.38
2022-12-23T10:58:43.274Z,99.31
2022-12-23T11:01:18.963Z,99.73
2022-12-23T11:04:11.499Z,99.59
2022-12-23T11:06:42.685Z,99.39
2022-12-23T11:09:20.068Z,98.92
2022-12-23T11:11:53.331Z,98.46
2022-12-23T11:14:40.038Z,98.62
2022-12-23T11:17:30.217Z,98.98
2022-12-23T11:20:13.000Z,98.49
2022-12-23T11:22:54.103Z,98.62
2022-12-23T11:25:39.113Z,99.32
2022-12-23T11:28:11.620Z,99.17
2022-12-23T11:30:50.356Z,98.46
2022-12-23T11:33:32.623Z,97.89
2022-12-23T11:36:08.503Z,97.98
2022-12-23T11:38:46.960Z,97.82
2022-12-23T11:41:25.057Z,96.85
2022-12-23T11:44:01.428Z,97.36
2022-12-23T11:46:31.908Z,97.00
2022-12-23T11:49:17.308Z,96.58
2022-12-23T11:52:02.534Z,97.29
2022-12-23T11:54:29.464Z,97.39
2022-12-23T11:56:56.335Z,97.66
2022-12-23T11:59:27.476Z,97.29
2022-12-23T12:01:54.532Z,97.17
2022-12-23T12:04:24.383Z,97.41
2022-12-23T12:06:56.382Z,97.58
2022-12-23T12:09:24.472Z,97.08
2022-12-23T12:11:57.229Z,97.57
2022-12-23T12:14:33.880Z,97.62
2022-12-23T12:17:12.887Z,98.02
2022-12-23T12:19:59.693Z,97.84
2022-12-23T12:22:41.292Z,97.56
2022-12-23T12:25:22.031Z,97.79
2022-12-23T12:28:01.852Z,98.17
2022-12-23T12:30:39.337Z,98.20
2022-12-23T12:33:16.000Z,98.19
2022-12-23T12:35:53.602Z,97.98
2022-12-23T12:38:32.619Z,97.88
2022-12-23T12:41:07.572Z,97.68
2022-12-23T12:44:10.601Z,98.27
2022-12-23T12:46:44.856Z,98.46
2022-12-23T12:49:38.341Z,98.56
2022-12-23T12:52:15.787Z,98.31
2022-12-23T12:54:54.304Z,98.46
2022-12-23T12:57:23.795Z,98.53
2022-12-23T12:59:55.550Z,98.35
2022-12-23T13:02:52.030Z,98.58
2022-12-23T13:05:54.497Z,98.71
2022-12-23T13:08:34.088Z,98.63
2022-12-23T13:11:09.184Z,98.56
2022-12-23T13:13:49.262Z,98.69
2022-12-23T13:17:02.350Z,98.64
2022-12-23T13:19:46.829Z,98.36
2022-12-23T13:22:17.462Z,98.46
2022-12-23T13:24:53.004Z,98.48
2022-12-23T13:27:22.430Z,98.78
2022-12-23T13:30:04.069Z,98.39
2022-12-23T13:33:06.787Z,98.02
2022-12-23T13:35:38.934Z,98.28
2022-12-23T13:38:17.392Z,98.63
2022-12-23T13:41:09.953Z,98.35
2022-12-23T13:43:46.042Z,98.49
2022-12-23T13:46:46.816Z,98.20
2022-12-23T13:49:38.076Z,98.61
2022-12-23T13:52:15.901Z,98.64
2022-12-23T13:54:49.789Z,98.64
2022-12-23T13:57:41.178Z,98.81
2022-12-23T14:00:16.797Z,98.44
2022-12-23T14:02:52.748Z,98.65
2022-12-23T14:05:33.055Z,98.70
2022-12-23T14:08:05.640Z,98.75
2022-12-23T14:10:33.257Z,98.81
2022-12-23T14:13:07.066Z,98.88
2022-12-23T14:15:56.573Z,98.93
2022-12-23T14:18:44.526Z,98.95
2022-12-23T14:21:29.275Z,98.86
2022-12-23T14:24:33.049Z,98.39
2022-12-23T14:27:30.754Z,99.19
2022-12-23T14:30:20.560Z,98.43
2022-12-23T14:32:49.970Z,98.98
2022-12-23T14:35:27.159Z,98.81
2022-12-23T14:38:15.185Z,98.52
2022-12-23T14:40:41.569Z,98.73
2022-12-23T14:43:32.046Z,98.69
2022-12-23T14:46:04.879Z,98.46
2022-12-23T14:48:34.181Z,99.21
2022-12-23T14:51:03.023Z,98.54
2022-12-23T14:53:31.473Z,98.93
2022-12-23T14:56:09.832Z,98.82
2022-12-23T14:58:52.612Z,98.57
2022-12-23T15:01:45.543Z,99.01
2022-12-23T15:04:18.570Z,98.73
2022-12-23T15:06:51.891Z,98.58
2022-12-23T15:09:24.728Z,98.88
2022-12-23T15:11:52.581Z,98.87
2022-12-23T15:14:52.077Z,98.81
2022-12-23T15:17:26.154Z,99.07
2022-12-23T15:19:53.530Z,98.75
2022-12-23T15:22:26.837Z,98.67
2022-12-23T15:24:58.431Z,98.72
2022-12-23T15:27:28.439Z,98.78
2022-12-23T15:29:55.835Z,98.97
2022-12-23T15:32:24.491Z,98.82
2022-12-23T15:34:52.732Z,99.17
2022-12-23T15:37:27.536Z,99.21
2022-12-23T15:40:04.500Z,98.72
2022-12-23T15:42:38.212Z,98.94
2022-12-23T15:45:23.038Z,98.77
2022-12-23T15:47:50.072Z,99.01
2022-12-23T15:50:18.565Z,99.51
2022-12-23T15:52:47.434Z,99.37
2022-12-23T15:55:20.665Z,99.46
2022-12-23T15:57:50.564Z,99.41
2022-12-23T16:00:21.829Z,99.47
2022-12-23T16:03:00.443Z,99.78
2022-12-23T16:05:35.508Z,99.53
2022-12-23T16:08:12.067Z,99.45
2022-12-23T16:10:39.107Z,99.15
2022-12-23T16:13:20.464Z,99.02
2022-12-23T16:15:47.124Z,99.10
2022-12-23T16:18:31.620Z,99.04
2022-12-23T16:21:03.765Z,99.94
2022-12-23T16:23:33.127Z,99.84
2022-12-23T16:26:01.429Z,99.76
2022-12-23T16:28:36.998Z,100.00
2022-12-23T16:31:06.654Z,99.90
2022-12-23T16:33:38.262Z,100.00
2022-12-23T16:36:26.411Z,99.90
2022-12-23T16:38:56.850Z,99.67
2022-12-23T16:41:23.380Z,99.97
2022-12-23T16:43:52.716Z,99.58
2022-12-23T16:46:22.146Z,99.41
2022-12-23T16:48:55.499Z,99.88
2022-12-23T16:51:23.406Z,99.16
2022-12-23T16:53:51.568Z,98.53
2022-12-23T16:56:20.821Z,98.45
2022-12-23T16:58:47.881Z,99.24
2022-12-23T17:01:15.742Z,98.19
2022-12-23T17:03:42.316Z,98.93
2022-12-23T17:06:16.054Z,98.66
2022-12-23T17:08:42.584Z,98.42
2022-12-23T17:11:17.260Z,99.01
2022-12-23T17:13:44.707Z,98.96
2022-12-23T17:16:20.343Z,99.16
2022-12-23T17:18:48.112Z,97.93
2022-12-23T17:21:33.968Z,98.63
2022-12-23T17:24:06.696Z,98.58
2022-12-23T17:26:33.312Z,98.23
2022-12-23T17:28:59.860Z,98.13
2022-12-23T17:31:27.227Z,98.46
2022-12-23T17:33:54.351Z,98.55
2022-12-23T17:36:21.479Z,98.29
2022-12-23T17:38:48.081Z,98.20
2022-12-23T17:41:25.009Z,97.70
2022-12-23T17:43:52.544Z,97.85
2022-12-23T17:46:19.358Z,96.88
2022-12-23T17:48:47.010Z,97.51
2022-12-23T17:51:19.047Z,96.75
2022-12-23T17:53:47.451Z,96.79
2022-12-23T17:56:20.069Z,97.28
2022-12-23T17:58:49.508Z,96.58
2022-12-23T18:01:18.252Z,96.37
2022-12-23T18:03:44.874Z,96.36
2022-12-23T18:06:16.142Z,96.27
2022-12-23T18:08:43.104Z,95.96
2022-12-23T18:11:27.640Z,96.50
2022-12-23T18:13:54.389Z,96.29
2022-12-23T18:16:20.865Z,96.68
2022-12-23T18:18:47.526Z,95.94
2022-12-23T18:21:22.453Z,96.36
2022-12-23T18:23:49.156Z,96.63
2022-12-23T18:26:15.625Z,95.83
2022-12-23T18:28:43.063Z,95.57
2022-12-23T18:31:21.738Z,96.45
2022-12-23T18:33:48.311Z,95.68
2022-12-23T18:36:31.071Z,96.54
2022-12-23T18:38:57.773Z,95.91
2022-12-23T18:41:25.549Z,95.92
2022-12-23T18:43:52.567Z,96.63
2022-12-23T18:46:22.248Z,95.97
2022-12-23T18:48:48.829Z,95.55
2022-12-23T18:51:21.148Z,96.39
2022-12-23T18:53:48.484Z,95.77
2022-12-23T18:56:16.875Z,95.71
2022-12-23T18:58:43.438Z,95.29
2022-12-23T19:01:15.780Z,95.10
2022-12-23T19:03:42.907Z,95.43
2022-12-23T19:06:11.838Z,96.30
2022-12-23T19:08:38.377Z,96.12
2022-12-23T19:11:16.911Z,96.18
2022-12-23T19:13:45.113Z,95.99
2022-12-23T19:16:16.131Z,96.09
2022-12-23T19:18:45.815Z,95.93
2022-12-23T19:21:12.464Z,96.03
2022-12-23T19:23:40.655Z,95.70
2022-12-23T19:26:09.162Z,94.87
2022-12-23T19:28:37.829Z,95.40
2022-12-23T19:31:12.971Z,95.01
2022-12-23T19:33:41.131Z,94.55
2022-12-23T19:36:18.789Z,95.72
2022-12-23T19:38:45.668Z,94.79
2022-12-23T19:41:12.181Z,94.43
2022-12-23T19:43:39.209Z,94.77
2022-12-23T19:46:08.631Z,94.26
2022-12-23T19:48:36.037Z,93.89
2022-12-23T19:51:11.701Z,94.50
2022-12-23T19:53:39.485Z,94.69
2022-12-23T19:56:15.486Z,93.97
2022-12-23T19:58:43.725Z,94.26
2022-12-23T20:01:15.333Z,93.85
2022-12-23T20:03:43.356Z,93.71
2022-12-23T20:06:20.378Z,93.66
2022-12-23T20:08:48.188Z,93.63
2022-12-23T20:11:17.939Z,94.03
2022-12-23T20:13:45.217Z,93.53
2022-12-23T20:16:12.115Z,93.13
2022-12-23T20:18:38.811Z,92.93
2022-12-23T20:21:06.837Z,93.26
2022-12-23T20:23:34.291Z,93.64
2022-12-23T20:26:00.889Z,93.41
2022-12-23T20:28:27.385Z,92.86
2022-12-23T20:31:16.647Z,92.65
2022-12-23T20:33:44.995Z,93.63
2022-12-23T20:36:13.950Z,93.37
2022-12-23T20:38:42.684Z,93.41
2022-12-23T20:41:11.190Z,93.32
2022-12-23T20:43:37.642Z,92.58
2022-12-23T20:46:06.131Z,92.36
2022-12-23T20:48:34.539Z,92.51
2022-12-23T20:51:24.959Z,92.51
2022-12-23T20:53:53.152Z,92.09
2022-12-23T20:56:21.127Z,92.91
2022-12-23T20:59:02.409Z,91.91
2022-12-23T21:01:38.355Z,92.75
2022-12-23T21:04:07.940Z,93.74
2022-12-23T21:06:35.594Z,93.22
2022-12-23T21:09:05.770Z,92.74
2022-12-23T21:11:34.712Z,92.01
2022-12-23T21:14:06.227Z,92.66
2022-12-23T21:16:34.865Z,92.12
2022-12-23T21:19:01.392Z,92.33
2022-12-23T21:21:31.030Z,91.85
2022-12-23T21:24:00.714Z,92.62
2022-12-23T21:26:28.848Z,91.95
2022-12-23T21:28:59.334Z,92.19
2022-12-23T21:31:27.731Z,91.30
2022-12-23T21:33:54.629Z,92.04
2022-12-23T21:36:24.345Z,92.12
2022-12-23T21:38:51.243Z,92.30
2022-12-23T21:41:23.543Z,91.75
2022-12-23T21:43:50.743Z,91.79
2022-12-23T21:46:19.753Z,90.67
2022-12-23T21:48:47.229Z,92.04
2022-12-23T21:51:16.384Z,90.88
2022-12-23T21:53:44.178Z,91.45
2022-12-23T21:56:19.235Z,91.41
2022-12-23T21:58:45.717Z,91.97
2022-12-23T22:01:18.300Z,92.05
2022-12-23T22:03:47.422Z,91.71
2022-12-23T22:06:26.391Z,91.02
2022-12-23T22:08:54.064Z,91.97
2022-12-23T22:11:25.861Z,91.97
2022-12-23T22:13:53.234Z,92.19
2022-12-23T22:16:22.621Z,91.44
2022-12-23T22:18:50.216Z,91.83
2022-12-23T22:21:19.991Z,91.28
2022-12-23T22:23:47.299Z,92.13
2022-12-23T22:26:20.410Z,91.93
2022-12-23T22:28:50.991Z,91.82
2022-12-23T22:31:19.449Z,90.54
2022-12-23T22:33:46.265Z,90.58
2022-12-23T22:36:14.970Z,90.69
2022-12-23T22:38:41.679Z,91.41
2022-12-23T22:41:08.711Z,90.84
2022-12-23T22:43:35.077Z,90.23
2022-12-23T22:46:02.548Z,90.91
2022-12-23T22:48:30.466Z,91.86
2022-12-23T22:51:23.290Z,91.58
2022-12-23T22:53:49.870Z,92.22
2022-12-23T22:56:19.385Z,91.27
2022-12-23T22:58:45.779Z,90.93
2022-12-23T23:01:26.328Z,91.86
2022-12-23T23:03:57.621Z,91.47
2022-12-23T23:06:26.457Z,91.11
2022-12-23T23:08:53.887Z,91.80
2022-12-23T23:11:20.378Z,91.16
2022-12-23T23:13:46.816Z,90.67
2022-12-23T23:16:13.195Z,89.99
2022-12-23T23:18:39.773Z,90.23
2022-12-23T23:21:07.751Z,90.36
2022-12-23T23:23:35.324Z,89.57
2022-12-23T23:26:01.981Z,89.52
2022-12-23T23:28:28.361Z,89.55
2022-12-23T23:31:16.876Z,88.93
2022-12-23T23:33:41.020Z,89.23
2022-12-23T23:36:07.897Z,89.36
2022-12-23T23:38:35.218Z,88.60
2022-12-23T23:41:01.805Z,88.52
2022-12-23T23:43:28.445Z,88.76
2022-12-23T23:45:54.894Z,88.51
2022-12-23T23:48:21.811Z,88.55
2022-12-23T23:50:48.521Z,88.08
2022-12-23T23:53:16.141Z,88.48
2022-12-23T23:55:42.578Z,88.70
2022-12-23T23:58:11.078Z,88.40
